createdAt,value
2022-08-29T00:01:49.324Z,19.33
2022-08-29T00:04:15.917Z,19.39
2022-08-29T00:06:42.984Z,19.14
2022-08-29T00:09:09.566Z,19.16
2022-08-29T00:11:36.094Z,19.11
2022-08-29T00:14:07.219Z,19.18
2022-08-29T00:16:47.716Z,19.21
2022-08-29T00:19:15.194Z,19.12
2022-08-29T00:21:41.815Z,19.21
2022-08-29T00:24:09.755Z,19.26
2022-08-29T00:26:36.362Z,19.44
2022-08-29T00:29:03.417Z,19.56
2022-08-29T00:31:30.050Z,19.69
2022-08-29T00:33:57.729Z,19.67
2022-08-29T00:36:25.144Z,19.49
2022-08-29T00:38:52.624Z,19.37
2022-08-29T00:41:19.639Z,19.31
2022-08-29T00:43:46.351Z,19.37
2022-08-29T00:46:31.778Z,19.47
2022-08-29T00:49:00.799Z,19.63
2022-08-29T00:51:27.502Z,19.68
2022-08-29T00:53:58.081Z,19.71
2022-08-29T00:56:24.881Z,19.82
2022-08-29T00:58:51.379Z,19.96
2022-08-29T01:01:18.759Z,19.89
2022-08-29T01:03:45.432Z,19.84
2022-08-29T01:06:13.584Z,19.79
2022-08-29T01:08:40.090Z,19.72
2022-08-29T01:11:25.998Z,19.75
2022-08-29T01:13:54.191Z,19.63
2022-08-29T01:16:21.161Z,19.39
2022-08-29T01:18:49.453Z,19.38
2022-08-29T01:21:42.326Z,19.48
2022-08-29T01:24:27.217Z,19.66
2022-08-29T01:26:53.729Z,19.57
2022-08-29T01:29:20.220Z,19.57
2022-08-29T01:31:56.958Z,19.51
2022-08-29T01:34:25.033Z,19.56
2022-08-29T01:36:53.528Z,19.57
2022-08-29T01:39:22.112Z,19.56
2022-08-29T01:41:49.674Z,19.70
2022-08-29T01:44:20.582Z,19.63
2022-08-29T01:46:49.002Z,19.66
2022-08-29T01:49:16.513Z,19.68
2022-08-29T01:51:43.044Z,19.71
2022-08-29T01:54:10.577Z,19.58
2022-08-29T01:56:40.478Z,19.36
2022-08-29T01:59:09.398Z,19.30
2022-08-29T02:01:38.988Z,19.49
2022-08-29T02:04:06.523Z,19.44
2022-08-29T02:06:33.046Z,19.12
2022-08-29T02:09:00.193Z,19.21
2022-08-29T02:11:27.293Z,19.47
2022-08-29T02:13:55.768Z,19.45
2022-08-29T02:16:23.504Z,19.50
2022-08-29T02:18:50.122Z,19.52
2022-08-29T02:21:17.889Z,19.46
2022-08-29T02:23:49.895Z,19.49
2022-08-29T02:26:16.968Z,19.42
2022-08-29T02:28:43.566Z,19.35
2022-08-29T02:31:10.071Z,19.33
2022-08-29T02:33:37.584Z,19.31
2022-08-29T02:36:05.501Z,19.31
2022-08-29T02:38:32.019Z,19.19
2022-08-29T02:40:58.509Z,18.97
2022-08-29T02:43:26.146Z,18.88
2022-08-29T02:45:52.706Z,18.85
2022-08-29T02:48:19.265Z,19.06
2022-08-29T02:50:47.621Z,19.08
2022-08-29T02:53:15.870Z,19.12
2022-08-29T02:55:42.476Z,19.12
2022-08-29T02:58:09.050Z,19.07
2022-08-29T03:00:36.339Z,18.92
2022-08-29T03:03:03.229Z,18.94
2022-08-29T03:05:32.378Z,19.14
2022-08-29T03:07:58.985Z,19.27
2022-08-29T03:10:25.569Z,19.28
2022-08-29T03:12:52.087Z,19.29
2022-08-29T03:15:19.146Z,19.12
2022-08-29T03:17:45.948Z,18.92
2022-08-29T03:20:14.109Z,19.05
2022-08-29T03:22:40.710Z,18.77
2022-08-29T03:25:07.976Z,18.75
2022-08-29T03:27:34.954Z,18.72
2022-08-29T03:30:01.959Z,18.77
2022-08-29T03:32:28.590Z,18.85
2022-08-29T03:34:55.218Z,18.75
2022-08-29T03:37:22.061Z,18.87
2022-08-29T03:39:50.918Z,18.87
2022-08-29T03:42:17.553Z,18.85
2022-08-29T03:44:44.104Z,18.74
2022-08-29T03:47:10.769Z,18.81
2022-08-29T03:49:37.532Z,18.83
2022-08-29T03:52:04.358Z,18.79
2022-08-29T03:54:30.882Z,18.70
2022-08-29T03:56:57.332Z,18.85
2022-08-29T03:59:23.940Z,18.70
2022-08-29T04:01:50.902Z,18.67
2022-08-29T04:04:41.918Z,18.77
2022-08-29T04:07:13.213Z,18.62
2022-08-29T04:09:40.845Z,18.57
2022-08-29T04:12:11.491Z,18.58
2022-08-29T04:14:38.670Z,18.49
2022-08-29T04:17:05.633Z,18.23
2022-08-29T04:19:32.243Z,18.32
2022-08-29T04:21:58.735Z,18.49
2022-08-29T04:24:25.226Z,18.69
2022-08-29T04:26:51.773Z,18.55
2022-08-29T04:29:18.291Z,18.41
2022-08-29T04:31:44.884Z,18.29
2022-08-29T04:34:12.791Z,18.20
2022-08-29T04:36:41.742Z,18.21
2022-08-29T04:39:09.564Z,18.03
2022-08-29T04:41:36.815Z,18.14
2022-08-29T04:44:03.914Z,18.42
2022-08-29T04:46:30.461Z,18.28
2022-08-29T04:49:00.575Z,18.36
2022-08-29T04:51:29.957Z,18.24
2022-08-29T04:53:57.068Z,18.44
2022-08-29T04:56:23.545Z,19.03
2022-08-29T04:58:51.945Z,18.66
2022-08-29T05:01:20.327Z,18.52
2022-08-29T05:03:48.077Z,18.42
2022-08-29T05:06:16.165Z,18.47
2022-08-29T05:08:45.813Z,18.44
2022-08-29T05:11:15.432Z,18.46
2022-08-29T05:13:49.453Z,18.27
2022-08-29T05:16:17.210Z,18.42
2022-08-29T05:18:44.370Z,18.64
2022-08-29T05:21:12.298Z,18.59
2022-08-29T05:23:39.242Z,18.75
2022-08-29T05:26:06.048Z,18.86
2022-08-29T05:28:33.791Z,18.97
2022-08-29T05:31:00.602Z,18.84
2022-08-29T05:33:30.069Z,18.93
2022-08-29T05:35:57.037Z,18.76
2022-08-29T05:38:23.552Z,19.07
2022-08-29T05:40:50.168Z,19.15
2022-08-29T05:43:16.694Z,19.29
2022-08-29T05:45:43.156Z,19.59
2022-08-29T05:48:09.918Z,19.77
2022-08-29T05:50:41.784Z,19.92
2022-08-29T05:53:09.683Z,19.85
2022-08-29T05:55:39.909Z,20.18
2022-08-29T05:58:06.866Z,20.31
2022-08-29T06:00:33.574Z,20.12
2022-08-29T06:03:01.393Z,20.19
2022-08-29T06:05:28.013Z,20.61
2022-08-29T06:07:54.542Z,20.55
2022-08-29T06:10:21.103Z,21.06
2022-08-29T06:12:47.561Z,21.24
2022-08-29T06:15:14.245Z,22.02
2022-08-29T06:17:40.756Z,22.62
2022-08-29T06:20:09.555Z,22.49
2022-08-29T06:22:40.120Z,22.11
2022-08-29T06:25:28.095Z,21.94
2022-08-29T06:27:54.550Z,22.77
2022-08-29T06:30:21.136Z,22.62
2022-08-29T06:32:47.908Z,22.75
2022-08-29T06:35:14.550Z,23.35
2022-08-29T06:37:41.524Z,23.44
2022-08-29T06:40:08.435Z,24.44
2022-08-29T06:42:35.001Z,24.57
2022-08-29T06:45:06.481Z,24.44
2022-08-29T06:47:33.166Z,23.28
2022-08-29T06:49:59.710Z,23.75
2022-08-29T06:52:27.758Z,23.47
2022-08-29T06:54:54.350Z,22.91
2022-08-29T06:57:20.876Z,23.44
2022-08-29T06:59:47.397Z,23.58
2022-08-29T07:02:13.902Z,23.89
2022-08-29T07:04:40.393Z,24.25
2022-08-29T07:07:06.967Z,24.31
2022-08-29T07:09:33.910Z,23.89
2022-08-29T07:12:00.721Z,24.28
2022-08-29T07:14:27.269Z,24.08
2022-08-29T07:16:54.345Z,24.45
2022-08-29T07:19:20.925Z,24.06
2022-08-29T07:21:48.916Z,23.79
2022-08-29T07:24:15.431Z,24.43
2022-08-29T07:26:43.369Z,23.78
2022-08-29T07:29:12.583Z,24.19
2022-08-29T07:31:39.437Z,25.58
2022-08-29T07:34:06.505Z,25.23
2022-08-29T07:36:34.289Z,24.79
2022-08-29T07:39:01.190Z,24.13
2022-08-29T07:41:28.564Z,25.44
2022-08-29T07:43:55.050Z,24.73
2022-08-29T07:46:21.727Z,24.97
2022-08-29T07:48:48.568Z,25.42
2022-08-29T07:51:16.722Z,26.14
2022-08-29T07:53:43.576Z,26.42
2022-08-29T07:56:11.867Z,26.51
2022-08-29T07:58:38.910Z,25.71
2022-08-29T08:01:05.662Z,25.47
2022-08-29T08:03:33.071Z,25.30
2022-08-29T08:05:59.712Z,26.32
2022-08-29T08:08:30.715Z,27.25
2022-08-29T08:10:57.187Z,26.92
2022-08-29T08:13:23.722Z,26.84
2022-08-29T08:15:50.357Z,26.02
2022-08-29T08:18:16.914Z,26.65
2022-08-29T08:20:48.356Z,26.64
2022-08-29T08:23:18.541Z,26.49
2022-08-29T08:25:45.406Z,26.01
2022-08-29T08:28:12.651Z,26.74
2022-08-29T08:30:39.564Z,26.05
2022-08-29T08:33:06.065Z,26.91
2022-08-29T08:35:37.210Z,26.01
2022-08-29T08:38:04.549Z,26.67
2022-08-29T08:40:31.651Z,26.99
2022-08-29T08:43:01.884Z,27.34
2022-08-29T08:45:33.458Z,26.39
2022-08-29T08:48:04.834Z,26.56
2022-08-29T08:50:42.105Z,26.85
2022-08-29T08:53:08.656Z,26.47
2022-08-29T08:55:51.704Z,26.50
2022-08-29T08:58:28.918Z,26.84
2022-08-29T09:01:16.181Z,27.16
2022-08-29T09:04:02.826Z,27.86
2022-08-29T09:06:40.059Z,27.88
2022-08-29T09:09:17.502Z,27.80
2022-08-29T09:11:47.083Z,26.71
2022-08-29T09:14:20.578Z,26.87
2022-08-29T09:16:49.378Z,27.10
2022-08-29T09:19:17.565Z,27.69
2022-08-29T09:21:50.135Z,28.00
2022-08-29T09:24:33.818Z,26.86
2022-08-29T09:27:00.354Z,26.67
2022-08-29T09:29:28.063Z,26.91
2022-08-29T09:32:18.840Z,27.02
2022-08-29T09:35:07.833Z,27.40
2022-08-29T09:37:35.279Z,28.71
2022-08-29T09:40:05.518Z,29.23
2022-08-29T09:42:36.606Z,29.38
2022-08-29T09:45:07.462Z,28.65
2022-08-29T09:47:34.149Z,27.56
2022-08-29T09:50:10.418Z,27.03
2022-08-29T09:52:38.406Z,27.66
2022-08-29T09:55:37.284Z,28.61
2022-08-29T09:58:03.759Z,28.79
2022-08-29T10:00:35.429Z,29.32
2022-08-29T10:03:03.333Z,29.60
2022-08-29T10:05:34.799Z,29.70
2022-08-29T10:08:02.934Z,29.77
2022-08-29T10:10:30.823Z,30.33
2022-08-29T10:12:57.379Z,30.18
2022-08-29T10:15:50.916Z,30.57
2022-08-29T10:18:30.270Z,30.19
2022-08-29T10:21:10.302Z,31.90
2022-08-29T10:23:37.230Z,31.88
2022-08-29T10:26:08.936Z,31.23
2022-08-29T10:28:44.090Z,31.27
2022-08-29T10:31:26.209Z,31.36
2022-08-29T10:33:56.102Z,30.79
2022-08-29T10:36:25.785Z,29.94
2022-08-29T10:39:00.566Z,31.35
2022-08-29T10:41:27.086Z,31.03
2022-08-29T10:44:07.020Z,32.37
2022-08-29T10:46:42.599Z,31.58
2022-08-29T10:49:28.541Z,31.50
2022-08-29T10:52:04.218Z,32.63
2022-08-29T10:54:41.572Z,32.03
2022-08-29T10:57:09.140Z,29.78
2022-08-29T10:59:35.605Z,29.85
2022-08-29T11:02:25.130Z,29.43
2022-08-29T11:04:54.746Z,28.71
2022-08-29T11:07:27.388Z,27.80
2022-08-29T11:10:00.839Z,27.15
2022-08-29T11:12:45.912Z,26.63
2022-08-29T11:15:15.535Z,26.37
2022-08-29T11:17:43.923Z,26.08
2022-08-29T11:20:17.747Z,25.26
2022-08-29T11:22:47.694Z,24.33
2022-08-29T11:25:16.766Z,23.85
2022-08-29T11:27:54.600Z,22.93
2022-08-29T11:30:24.450Z,23.38
2022-08-29T11:33:09.752Z,23.17
2022-08-29T11:35:36.375Z,21.92
2022-08-29T11:38:23.770Z,21.48
2022-08-29T11:43:53.540Z,20.74
2022-08-29T11:46:33.637Z,21.18
2022-08-29T11:49:19.125Z,20.85
2022-08-29T11:51:51.629Z,20.70
2022-08-29T11:54:25.046Z,20.86
2022-08-29T11:57:11.654Z,20.91
2022-08-29T11:59:48.530Z,21.17
2022-08-29T12:02:27.459Z,20.71
2022-08-29T12:04:55.949Z,20.59
2022-08-29T12:07:33.545Z,20.68
2022-08-29T12:10:00.781Z,20.78
2022-08-29T12:12:38.070Z,20.45
2022-08-29T12:15:28.030Z,20.84
2022-08-29T12:18:03.828Z,20.53
2022-08-29T12:20:30.882Z,20.61
2022-08-29T12:22:59.539Z,20.66
2022-08-29T12:25:38.336Z,20.71
2022-08-29T12:28:35.191Z,20.86
2022-08-29T12:31:10.031Z,21.15
2022-08-29T12:33:54.743Z,21.11
2022-08-29T12:36:40.107Z,20.99
2022-08-29T12:39:38.675Z,21.38
2022-08-29T12:42:14.364Z,20.99
2022-08-29T12:44:45.292Z,20.95
2022-08-29T12:47:13.870Z,21.18
2022-08-29T12:49:51.699Z,21.47
2022-08-29T12:52:23.086Z,21.75
2022-08-29T12:54:54.359Z,21.77
2022-08-29T12:57:34.034Z,21.72
2022-08-29T13:00:02.036Z,21.33
2022-08-29T13:02:35.029Z,21.88
2022-08-29T13:05:02.558Z,22.28
2022-08-29T13:07:29.538Z,22.47
2022-08-29T13:09:57.499Z,21.95
2022-08-29T13:12:31.969Z,22.73
2022-08-29T13:15:00.504Z,23.95
2022-08-29T13:17:34.841Z,24.13
2022-08-29T13:20:20.165Z,23.91
2022-08-29T13:22:46.711Z,24.55
2022-08-29T13:25:15.562Z,24.09
2022-08-29T13:27:42.133Z,24.27
2022-08-29T13:30:08.839Z,25.13
2022-08-29T13:32:36.340Z,26.24
2022-08-29T13:35:03.044Z,26.01
2022-08-29T13:37:32.027Z,26.76
2022-08-29T13:40:18.468Z,26.61
2022-08-29T13:42:45.465Z,26.12
2022-08-29T13:45:13.617Z,26.33
2022-08-29T13:47:45.639Z,28.01
2022-08-29T13:50:13.208Z,27.14
2022-08-29T13:52:39.762Z,26.36
2022-08-29T13:55:07.591Z,26.18
2022-08-29T13:57:34.820Z,26.55
2022-08-29T14:00:02.280Z,26.83
2022-08-29T14:02:45.185Z,27.45
2022-08-29T14:05:18.161Z,28.27
2022-08-29T14:07:46.169Z,28.66
2022-08-29T14:10:13.938Z,28.42
2022-08-29T14:12:40.532Z,28.31
2022-08-29T14:15:09.613Z,28.39
2022-08-29T14:17:37.038Z,28.15
2022-08-29T14:20:04.923Z,28.64
2022-08-29T14:22:31.480Z,27.48
2022-08-29T14:24:58.071Z,27.73
2022-08-29T14:27:24.719Z,27.60
2022-08-29T14:29:51.515Z,28.23
2022-08-29T14:32:18.328Z,28.22
2022-08-29T14:34:51.377Z,28.53
2022-08-29T14:37:19.479Z,28.44
2022-08-29T14:39:49.718Z,27.44
2022-08-29T14:42:16.993Z,28.06
2022-08-29T14:44:43.569Z,27.49
2022-08-29T14:47:10.170Z,27.39
2022-08-29T14:49:36.959Z,26.61
2022-08-29T14:52:03.567Z,27.25
2022-08-29T14:54:30.111Z,26.91
2022-08-29T14:56:56.673Z,26.81
2022-08-29T14:59:25.490Z,26.80
2022-08-29T15:01:54.747Z,26.24
2022-08-29T15:04:34.813Z,26.50
2022-08-29T15:07:07.691Z,26.05
2022-08-29T15:09:34.256Z,26.21
2022-08-29T15:12:00.782Z,26.56
2022-08-29T15:14:27.277Z,26.57
2022-08-29T15:16:53.831Z,25.80
2022-08-29T15:22:08.450Z,25.60
2022-08-29T15:24:35.090Z,25.38
2022-08-29T15:27:01.613Z,25.21
2022-08-29T15:29:28.201Z,24.86
2022-08-29T15:31:57.223Z,24.82
2022-08-29T15:34:27.335Z,24.83
2022-08-29T15:36:54.490Z,24.94
2022-08-29T15:39:21.683Z,25.21
2022-08-29T15:41:48.192Z,25.06
2022-08-29T15:44:14.749Z,25.06
2022-08-29T15:46:43.261Z,25.35
2022-08-29T15:49:18.406Z,24.95
2022-08-29T15:51:44.890Z,24.71
2022-08-29T15:54:12.174Z,25.16
2022-08-29T15:56:38.867Z,25.47
2022-08-29T15:59:06.973Z,25.17
2022-08-29T16:01:44.965Z,25.06
2022-08-29T16:04:12.082Z,25.42
2022-08-29T16:06:39.120Z,25.41
2022-08-29T16:09:12.876Z,25.08
2022-08-29T16:11:45.465Z,25.38
2022-08-29T16:14:57.507Z,25.54
2022-08-29T16:16:58.947Z,25.21
2022-08-29T16:19:25.643Z,24.50
2022-08-29T16:21:52.115Z,24.49
2022-08-29T16:24:18.784Z,25.09
2022-08-29T16:26:46.004Z,24.87
2022-08-29T16:29:13.028Z,24.40
2022-08-29T16:31:39.669Z,24.31
2022-08-29T16:34:06.171Z,24.32
2022-08-29T16:36:32.826Z,23.97
2022-08-29T16:38:59.605Z,23.63
2022-08-29T16:41:27.477Z,23.57
2022-08-29T16:43:55.143Z,24.05
2022-08-29T16:46:23.798Z,24.08
2022-08-29T16:48:50.610Z,23.94
2022-08-29T16:51:19.191Z,23.76
2022-08-29T16:53:45.956Z,23.63
2022-08-29T16:56:14.442Z,23.46
2022-08-29T16:59:00.380Z,23.35
2022-08-29T17:01:31.653Z,22.97
2022-08-29T17:03:59.242Z,22.86
2022-08-29T17:06:25.749Z,22.74
2022-08-29T17:08:52.337Z,22.40
2022-08-29T17:11:18.837Z,22.22
2022-08-29T17:13:45.328Z,22.17
2022-08-29T17:16:11.854Z,22.20
2022-08-29T17:18:38.775Z,22.20
2022-08-29T17:21:05.804Z,22.35
2022-08-29T17:23:32.705Z,22.06
2022-08-29T17:26:00.183Z,21.79
2022-08-29T17:28:27.320Z,21.69
2022-08-29T17:30:54.664Z,21.89
2022-08-29T17:33:21.594Z,22.03
2022-08-29T17:35:48.676Z,21.76
2022-08-29T17:38:15.306Z,21.42
2022-08-29T17:40:42.257Z,21.24
2022-08-29T17:43:09.226Z,21.28
2022-08-29T17:45:36.831Z,21.04
2022-08-29T17:48:05.077Z,20.96
2022-08-29T17:50:31.783Z,21.14
2022-08-29T17:52:58.443Z,21.39
2022-08-29T17:55:25.018Z,21.38
2022-08-29T17:57:57.212Z,21.42
2022-08-29T18:00:25.047Z,21.44
2022-08-29T18:02:51.828Z,21.37
2022-08-29T18:05:18.586Z,21.40
2022-08-29T18:07:45.397Z,21.26
2022-08-29T18:10:13.434Z,21.44
2022-08-29T18:12:39.982Z,21.57
2022-08-29T18:15:09.126Z,21.27
2022-08-29T18:17:36.206Z,21.02
2022-08-29T18:20:03.799Z,20.96
2022-08-29T18:22:30.490Z,21.06
2022-08-29T18:24:58.038Z,21.18
2022-08-29T18:27:24.992Z,21.31
2022-08-29T18:29:51.974Z,21.40
2022-08-29T18:32:21.649Z,21.54
2022-08-29T18:34:48.410Z,21.54
2022-08-29T18:37:15.156Z,21.55
2022-08-29T18:39:43.105Z,21.45
2022-08-29T18:42:24.688Z,21.44
2022-08-29T18:44:56.262Z,21.34
2022-08-29T18:47:22.747Z,21.29
2022-08-29T18:50:08.109Z,21.43
2022-08-29T18:52:36.382Z,21.43
2022-08-29T18:55:04.056Z,21.58
2022-08-29T18:57:30.602Z,21.36
2022-08-29T18:59:57.100Z,21.38
2022-08-29T19:02:23.683Z,21.26
2022-08-29T19:04:50.768Z,21.18
2022-08-29T19:07:17.362Z,21.39
2022-08-29T19:09:53.003Z,21.37
2022-08-29T19:12:19.674Z,21.43
2022-08-29T19:14:46.358Z,21.58
2022-08-29T19:17:13.085Z,21.37
2022-08-29T19:19:57.889Z,21.12
2022-08-29T19:22:24.435Z,21.28
2022-08-29T19:24:50.887Z,21.03
2022-08-29T19:27:39.651Z,20.98
2022-08-29T19:30:06.034Z,21.04
2022-08-29T19:32:32.626Z,21.08
2022-08-29T19:34:59.101Z,21.03
2022-08-29T19:37:26.463Z,20.75
2022-08-29T19:39:53.147Z,20.92
2022-08-29T19:42:19.645Z,20.90
2022-08-29T19:44:46.186Z,20.96
2022-08-29T19:47:14.535Z,21.07
2022-08-29T19:49:45.380Z,21.03
2022-08-29T19:52:12.128Z,20.96
2022-08-29T19:54:38.606Z,20.76
2022-08-29T19:57:09.907Z,20.61
2022-08-29T19:59:41.052Z,20.64
2022-08-29T20:02:09.399Z,20.49
2022-08-29T20:04:36.389Z,20.32
2022-08-29T20:07:03.239Z,20.39
2022-08-29T20:09:30.245Z,20.51
2022-08-29T20:11:57.176Z,20.40
2022-08-29T20:14:24.022Z,20.50
2022-08-29T20:16:51.990Z,20.37
2022-08-29T20:19:18.938Z,20.53
2022-08-29T20:21:45.880Z,20.50
2022-08-29T20:24:15.611Z,20.49
2022-08-29T20:26:44.361Z,20.45
2022-08-29T20:29:11.599Z,20.44
2022-08-29T20:31:38.743Z,20.28
2022-08-29T20:34:05.457Z,20.31
2022-08-29T20:36:50.733Z,20.23
2022-08-29T20:39:18.771Z,20.36
2022-08-29T20:41:53.708Z,20.31
2022-08-29T20:44:20.535Z,20.28
2022-08-29T20:46:47.951Z,20.38
2022-08-29T20:49:16.425Z,20.33
2022-08-29T20:51:46.117Z,20.31
2022-08-29T20:54:13.711Z,20.36
2022-08-29T20:56:40.252Z,20.28
2022-08-29T20:59:07.186Z,20.23
2022-08-29T21:01:35.837Z,19.98
2022-08-29T21:04:22.038Z,19.81
2022-08-29T21:06:49.090Z,20.02
2022-08-29T21:09:15.940Z,19.85
2022-08-29T21:11:42.457Z,20.06
2022-08-29T21:14:10.209Z,20.03
2022-08-29T21:16:36.998Z,20.37
2022-08-29T21:19:08.728Z,19.83
2022-08-29T21:21:36.900Z,19.76
2022-08-29T21:24:04.080Z,19.66
2022-08-29T21:26:32.842Z,19.54
2022-08-29T21:28:59.678Z,19.63
2022-08-29T21:31:26.342Z,19.67
2022-08-29T21:33:53.253Z,19.74
2022-08-29T21:36:21.142Z,19.76
2022-08-29T21:38:50.783Z,19.82
2022-08-29T21:41:17.288Z,19.77
2022-08-29T21:43:43.799Z,19.49
2022-08-29T21:46:17.926Z,19.40
2022-08-29T21:48:45.781Z,19.42
2022-08-29T21:51:13.813Z,19.69
2022-08-29T21:53:41.585Z,19.59
2022-08-29T21:56:08.385Z,19.60
2022-08-29T21:58:34.849Z,19.71
2022-08-29T22:01:01.418Z,19.70
2022-08-29T22:03:28.015Z,19.50
2022-08-29T22:05:54.530Z,19.57
2022-08-29T22:08:21.218Z,19.66
2022-08-29T22:10:48.198Z,19.52
2022-08-29T22:13:15.983Z,19.46
2022-08-29T22:16:01.277Z,19.57
2022-08-29T22:18:27.817Z,19.60
2022-08-29T22:20:56.910Z,19.60
2022-08-29T22:23:24.591Z,19.71
2022-08-29T22:25:52.015Z,19.72
2022-08-29T22:28:18.519Z,19.66
2022-08-29T22:30:45.057Z,19.58
2022-08-29T22:33:16.495Z,19.71
2022-08-29T22:35:43.508Z,19.82
2022-08-29T22:38:10.053Z,19.82
2022-08-29T22:40:36.648Z,19.67
2022-08-29T22:43:03.598Z,19.69
2022-08-29T22:45:30.087Z,20.07
2022-08-29T22:47:56.597Z,20.03
2022-08-29T22:50:24.310Z,19.80
2022-08-29T22:52:54.720Z,19.78
2022-08-29T22:57:47.293Z,19.79
2022-08-29T23:00:16.045Z,19.55
2022-08-29T23:02:42.947Z,19.49
2022-08-29T23:05:10.001Z,19.30
2022-08-29T23:07:36.977Z,19.41
2022-08-29T23:10:04.455Z,19.56
2022-08-29T23:12:31.062Z,19.76
2022-08-29T23:14:57.570Z,19.83
2022-08-29T23:17:24.117Z,19.70
2022-08-29T23:19:50.741Z,19.57
2022-08-29T23:22:17.312Z,19.41
2022-08-29T23:24:57.856Z,19.37
2022-08-29T23:27:26.034Z,19.36
2022-08-29T23:29:52.593Z,19.01
2022-08-29T23:32:19.088Z,18.90
2022-08-29T23:34:45.590Z,18.91
2022-08-29T23:37:12.106Z,19.15
2022-08-29T23:39:38.632Z,19.15
2022-08-29T23:42:05.415Z,19.04
2022-08-29T23:44:33.602Z,19.06
2022-08-29T23:47:00.713Z,19.08
2022-08-29T23:49:27.378Z,19.09
2022-08-29T23:51:53.850Z,19.14
2022-08-29T23:54:20.437Z,19.30
2022-08-29T23:56:46.978Z,19.03
2022-08-29T23:59:33.441Z,18.81
